createdAt,value
2019-05-01T00:00:51.883Z,100405.95
2019-05-01T00:03:32.840Z,100397.58
2019-05-01T00:06:05.977Z,100390.55
2019-05-01T00:08:37.513Z,100391.14
2019-05-01T00:11:08.032Z,100381.77
2019-05-01T00:13:38.492Z,100386.34
2019-05-01T00:16:08.945Z,100388.53
2019-05-01T00:18:39.418Z,100373.89
2019-05-01T00:21:10.854Z,100373.16
2019-05-01T00:23:41.317Z,100372.42
2019-05-01T00:26:12.757Z,100366.42
2019-05-01T00:28:43.285Z,100361.84
2019-05-01T00:31:13.762Z,100357.75
2019-05-01T00:33:45.273Z,100361.07
2019-05-01T00:36:15.972Z,100361.34
2019-05-01T00:38:46.444Z,100349.91
2019-05-01T00:41:16.829Z,100356.05
2019-05-01T00:43:47.221Z,100342.47
2019-05-01T00:46:17.672Z,100337.55
2019-05-01T00:48:52.110Z,100335.53
2019-05-01T00:51:22.602Z,100341.31
2019-05-01T00:53:53.073Z,100336.20
2019-05-01T00:56:41.862Z,100322.67
2019-05-01T00:59:24.124Z,100319.90
2019-05-01T01:02:08.285Z,100319.90
2019-05-01T01:04:38.771Z,100319.35
2019-05-01T01:07:10.404Z,100318.15
2019-05-01T01:09:40.935Z,100323.60
2019-05-01T01:12:11.513Z,100317.78
2019-05-01T01:14:41.998Z,100313.80
2019-05-01T01:17:12.440Z,100311.39
2019-05-01T01:19:42.950Z,100304.89
2019-05-01T01:22:13.405Z,100310.01
2019-05-01T01:24:43.891Z,100304.84
2019-05-01T01:27:14.849Z,100304.77
2019-05-01T01:29:45.922Z,100290.99
2019-05-01T01:32:16.409Z,100295.23
2019-05-01T01:34:47.947Z,100294.03
2019-05-01T01:37:20.518Z,100291.85
2019-05-01T01:39:51.013Z,100291.11
2019-05-01T01:42:23.086Z,100282.08
2019-05-01T01:44:56.680Z,100283.36
2019-05-01T01:47:27.140Z,100277.23
2019-05-01T01:49:58.134Z,100267.87
2019-05-01T01:52:28.741Z,100267.90
2019-05-01T01:54:59.230Z,100272.49
2019-05-01T01:57:31.013Z,100266.04
2019-05-01T02:00:01.518Z,100267.25
2019-05-01T02:02:35.784Z,100267.25
2019-05-01T02:05:08.944Z,100263.27
2019-05-01T02:07:39.514Z,100264.25
2019-05-01T02:10:10.133Z,100259.16
2019-05-01T02:12:41.621Z,100261.45
2019-05-01T02:15:12.264Z,100259.30
2019-05-01T02:17:42.746Z,100260.63
2019-05-01T02:20:14.341Z,100259.30
2019-05-01T02:22:45.916Z,100256.78
2019-05-01T02:25:16.714Z,100254.37
2019-05-01T02:28:05.721Z,100255.78
2019-05-01T02:30:36.156Z,100258.80
2019-05-01T02:33:07.043Z,100255.38
2019-05-01T02:35:38.701Z,100251.73
2019-05-01T02:38:10.477Z,100253.73
2019-05-01T02:40:49.205Z,100251.86
2019-05-01T02:43:21.523Z,100245.78
2019-05-01T02:45:53.439Z,100242.52
2019-05-01T02:48:25.454Z,100239.79
2019-05-01T02:50:58.386Z,100232.69
2019-05-01T02:53:30.340Z,100241.50
2019-05-01T02:56:15.092Z,100233.72
2019-05-01T02:58:48.747Z,100229.73
2019-05-01T03:01:19.570Z,100232.44
2019-05-01T03:03:50.999Z,100226.53
2019-05-01T03:06:22.194Z,100231.45
2019-05-01T03:08:54.118Z,100235.65
2019-05-01T03:11:24.564Z,100234.92
2019-05-01T03:13:57.605Z,100235.30
2019-05-01T03:16:28.195Z,100238.55
2019-05-01T03:19:03.181Z,100238.73
2019-05-01T03:21:38.387Z,100236.38
2019-05-01T03:24:13.353Z,100230.73
2019-05-01T03:26:45.190Z,100232.32
2019-05-01T03:29:16.679Z,100225.90
2019-05-01T03:32:13.335Z,100229.53
2019-05-01T03:34:19.380Z,100217.68
2019-05-01T03:36:50.046Z,100219.66
2019-05-01T03:39:20.994Z,100228.68
2019-05-01T03:41:51.547Z,100219.00
2019-05-01T03:44:22.206Z,100216.36
2019-05-01T03:46:52.877Z,100224.58
2019-05-01T03:49:23.567Z,100226.03
2019-05-01T03:51:55.127Z,100226.42
2019-05-01T03:54:25.643Z,100235.45
2019-05-01T03:56:56.173Z,100234.38
2019-05-01T03:59:27.599Z,100234.12
2019-05-01T04:02:32.808Z,100242.42
2019-05-01T04:04:51.415Z,100237.16
2019-05-01T04:07:21.946Z,100239.94
2019-05-01T04:09:53.880Z,100235.18
2019-05-01T04:12:24.369Z,100237.16
2019-05-01T04:14:54.886Z,100236.40
2019-05-01T04:17:31.115Z,100218.03
2019-05-01T04:20:01.997Z,100209.95
2019-05-01T04:22:32.686Z,100202.69
2019-05-01T04:25:03.354Z,100205.25
2019-05-01T04:27:35.801Z,100213.50
2019-05-01T04:30:11.036Z,100211.73
2019-05-01T04:32:52.571Z,100213.06
2019-05-01T04:35:26.666Z,100206.95
2019-05-01T04:37:57.381Z,100207.16
2019-05-01T04:40:28.059Z,100209.39
2019-05-01T04:43:00.605Z,100208.05
2019-05-01T04:45:31.089Z,100195.30
2019-05-01T04:48:01.607Z,100195.34
2019-05-01T04:50:32.030Z,100197.60
2019-05-01T04:53:02.540Z,100193.84
2019-05-01T04:55:33.026Z,100199.97
2019-05-01T04:58:05.025Z,100195.05
2019-05-01T05:00:36.404Z,100182.69
2019-05-01T05:03:08.441Z,100181.97
2019-05-01T05:05:44.833Z,100183.07
2019-05-01T05:08:15.833Z,100182.63
2019-05-01T05:10:47.222Z,100178.57
2019-05-01T05:13:20.278Z,100181.77
2019-05-01T05:16:00.058Z,100182.72
2019-05-01T05:18:30.553Z,100170.99
2019-05-01T05:21:01.038Z,100180.70
2019-05-01T05:23:32.725Z,100171.61
2019-05-01T05:26:03.702Z,100163.98
2019-05-01T05:28:39.119Z,100159.89
2019-05-01T05:31:14.528Z,100157.86
2019-05-01T05:33:46.440Z,100165.74
2019-05-01T05:36:17.371Z,100149.49
2019-05-01T05:38:49.676Z,100148.80
2019-05-01T05:41:22.502Z,100158.13
2019-05-01T05:43:53.332Z,100153.70
2019-05-01T05:46:23.930Z,100143.27
2019-05-01T05:48:54.578Z,100141.30
2019-05-01T05:51:31.207Z,100137.13
2019-05-01T05:54:10.107Z,100133.59
2019-05-01T05:56:43.594Z,100128.53
2019-05-01T05:59:16.154Z,100135.37
2019-05-01T06:01:49.643Z,100129.52
2019-05-01T06:04:23.808Z,100130.23
2019-05-01T06:07:20.166Z,100121.48
2019-05-01T06:09:53.446Z,100116.33
2019-05-01T06:12:25.699Z,100112.29
2019-05-01T06:15:05.867Z,100112.30
2019-05-01T06:17:39.883Z,100121.59
2019-05-01T06:20:25.717Z,100116.47
2019-05-01T06:23:07.224Z,100111.51
2019-05-01T06:25:40.687Z,100113.83
2019-05-01T06:28:11.814Z,100112.67
2019-05-01T06:30:47.229Z,100107.16
2019-05-01T06:33:15.438Z,100106.93
2019-05-01T06:35:46.847Z,100110.94
2019-05-01T06:38:18.007Z,100114.66
2019-05-01T06:40:53.142Z,100123.70
2019-05-01T06:43:43.435Z,100127.53
2019-05-01T06:46:14.414Z,100136.05
2019-05-01T06:49:06.882Z,100145.66
2019-05-01T06:51:41.436Z,100159.20
2019-05-01T06:54:16.110Z,100158.65
2019-05-01T06:56:47.303Z,100158.05
2019-05-01T06:59:18.261Z,100150.27
2019-05-01T07:01:53.035Z,100149.48
2019-05-01T07:04:23.506Z,100150.05
2019-05-01T07:06:53.979Z,100155.98
2019-05-01T07:09:28.007Z,100152.34
2019-05-01T07:11:57.310Z,100147.59
2019-05-01T07:14:28.166Z,100153.13
2019-05-01T07:16:58.545Z,100147.02
2019-05-01T07:19:35.581Z,100150.52
2019-05-01T07:22:06.342Z,100152.16
2019-05-01T07:24:37.049Z,100161.41
2019-05-01T07:27:09.503Z,100164.17
2019-05-01T07:29:44.987Z,100157.12
2019-05-01T07:32:15.146Z,100143.00
2019-05-01T07:34:48.867Z,100136.41
2019-05-01T07:37:20.795Z,100140.03
2019-05-01T07:39:51.860Z,100140.73
2019-05-01T07:42:29.618Z,100141.19
2019-05-01T07:45:17.893Z,100140.70
2019-05-01T07:47:51.471Z,100140.59
2019-05-01T07:50:23.907Z,100138.57
2019-05-01T07:52:55.252Z,100123.05
2019-05-01T07:55:38.161Z,100128.17
2019-05-01T07:58:15.193Z,100122.25
2019-05-01T08:00:50.492Z,100115.43
2019-05-01T08:03:21.223Z,100110.27
2019-05-01T08:05:51.836Z,100097.38
2019-05-01T08:08:22.485Z,100087.89
2019-05-01T08:10:53.042Z,100080.89
2019-05-01T08:13:24.562Z,100071.27
2019-05-01T08:15:57.618Z,100066.66
2019-05-01T08:18:32.429Z,100075.45
2019-05-01T08:21:21.108Z,100069.83
2019-05-01T08:23:52.245Z,100071.95
2019-05-01T08:26:22.821Z,100057.17
2019-05-01T08:29:08.118Z,100062.74
2019-05-01T08:31:40.273Z,100072.44
2019-05-01T08:34:12.360Z,100083.19
2019-05-01T08:36:47.295Z,100083.62
2019-05-01T08:39:14.902Z,100097.13
2019-05-01T08:41:45.385Z,100076.80
2019-05-01T08:44:15.876Z,100076.30
2019-05-01T08:47:00.061Z,100077.13
2019-05-01T08:49:33.148Z,100073.22
2019-05-01T08:52:04.778Z,100075.22
2019-05-01T08:54:35.729Z,100081.70
2019-05-01T08:57:07.907Z,100074.23
2019-05-01T08:59:40.403Z,100073.88
2019-05-01T09:02:10.863Z,100071.50
2019-05-01T09:04:41.572Z,100059.33
2019-05-01T09:07:14.684Z,100064.63
2019-05-01T09:09:47.291Z,100053.97
2019-05-01T09:12:17.944Z,100061.06
2019-05-01T09:14:51.288Z,100049.11
2019-05-01T09:17:22.088Z,100044.91
2019-05-01T09:19:52.649Z,100043.86
2019-05-01T09:22:23.212Z,100046.30
2019-05-01T09:24:53.665Z,100031.11
2019-05-01T09:27:45.325Z,100024.41
2019-05-01T09:30:21.674Z,100020.13
2019-05-01T09:32:54.128Z,100022.69
2019-05-01T09:35:21.823Z,100014.28
2019-05-01T09:37:52.346Z,100008.98
2019-05-01T09:40:22.849Z,100011.33
2019-05-01T09:42:54.617Z,100007.78
2019-05-01T09:45:26.594Z,99999.09
2019-05-01T09:47:57.056Z,99995.48
2019-05-01T09:50:30.380Z,99994.34
2019-05-01T09:53:18.747Z,99996.48
2019-05-01T09:55:56.860Z,99990.75
2019-05-01T09:58:27.440Z,100005.73
2019-05-01T10:01:00.762Z,99987.61
2019-05-01T10:03:31.615Z,99989.11
2019-05-01T10:06:03.298Z,99977.47
2019-05-01T10:08:39.773Z,99979.23
2019-05-01T10:11:07.118Z,99979.11
2019-05-01T10:13:37.617Z,99973.66
2019-05-01T10:16:08.074Z,99974.08
2019-05-01T10:18:38.584Z,99965.72
2019-05-01T10:21:09.041Z,99966.75
2019-05-01T10:23:39.499Z,99960.03
2019-05-01T10:26:11.598Z,99960.48
2019-05-01T10:28:50.051Z,99947.44
2019-05-01T10:31:20.275Z,99960.22
2019-05-01T10:34:09.157Z,99957.70
2019-05-01T10:36:41.405Z,99952.20
2019-05-01T10:39:15.965Z,99961.52
2019-05-01T10:41:47.870Z,99951.17
2019-05-01T10:44:18.669Z,99954.48
2019-05-01T10:46:49.135Z,99955.02
2019-05-01T10:49:20.894Z,99954.54
2019-05-01T10:51:51.967Z,99937.43
2019-05-01T10:54:23.392Z,99942.32
2019-05-01T10:56:53.897Z,99943.33
2019-05-01T10:59:24.448Z,99937.97
2019-05-01T11:01:56.530Z,99938.28
2019-05-01T11:04:27.019Z,99933.45
2019-05-01T11:06:57.671Z,99935.69
2019-05-01T11:09:28.141Z,99932.36
2019-05-01T11:12:04.499Z,99923.00
2019-05-01T11:14:34.987Z,99916.15
2019-05-01T11:17:05.537Z,99913.09
2019-05-01T11:19:36.066Z,99914.45
2019-05-01T11:22:06.544Z,99918.14
2019-05-01T11:24:37.052Z,99912.67
2019-05-01T11:27:08.118Z,99902.02
2019-05-01T11:29:39.631Z,99892.73
2019-05-01T11:32:20.914Z,99897.29
2019-05-01T11:34:56.905Z,99895.01
2019-05-01T11:37:31.704Z,99896.48
2019-05-01T11:40:03.780Z,99882.16
2019-05-01T11:42:34.309Z,99889.83
2019-05-01T11:45:06.264Z,99887.41
2019-05-01T11:47:37.138Z,99885.53
2019-05-01T11:50:07.950Z,99882.29
2019-05-01T11:52:38.405Z,99878.48
2019-05-01T11:55:08.938Z,99884.11
2019-05-01T11:57:39.406Z,99872.59
2019-05-01T12:00:10.803Z,99862.63
2019-05-01T12:02:41.243Z,99869.55
2019-05-01T12:05:11.771Z,99864.98
2019-05-01T12:07:42.304Z,99882.61
2019-05-01T12:10:14.431Z,99863.15
2019-05-01T12:12:45.202Z,99857.48
2019-05-01T12:15:18.670Z,99847.97
2019-05-01T12:17:50.357Z,99855.06
2019-05-01T12:20:21.544Z,99831.37
2019-05-01T12:22:52.018Z,99830.05
2019-05-01T12:25:22.625Z,99835.89
2019-05-01T12:27:53.240Z,99822.12
2019-05-01T12:30:23.777Z,99830.45
2019-05-01T12:32:56.324Z,99814.39
2019-05-01T12:35:26.938Z,99812.89
2019-05-01T12:37:59.044Z,99805.95
2019-05-01T12:40:29.520Z,99797.56
2019-05-01T12:43:03.721Z,99808.31
2019-05-01T12:45:34.287Z,99798.44
2019-05-01T12:48:04.806Z,99788.48
2019-05-01T12:50:35.549Z,99780.21
2019-05-01T12:53:10.964Z,99779.20
2019-05-01T12:55:52.678Z,99779.44
2019-05-01T12:58:23.114Z,99783.03
2019-05-01T13:00:57.612Z,99769.27
2019-05-01T13:03:28.175Z,99763.42
2019-05-01T13:05:59.719Z,99757.86
2019-05-01T13:08:30.242Z,99755.84
2019-05-01T13:11:03.355Z,99749.66
2019-05-01T13:13:33.814Z,99741.09
2019-05-01T13:16:04.226Z,99748.58
2019-05-01T13:18:34.668Z,99733.84
2019-05-01T13:21:07.189Z,99721.17
2019-05-01T13:23:37.745Z,99725.75
2019-05-01T13:26:09.856Z,99725.18
2019-05-01T13:28:41.928Z,99727.14
2019-05-01T13:31:18.684Z,99712.70
2019-05-01T13:33:49.148Z,99737.71
2019-05-01T13:36:20.656Z,99710.75
2019-05-01T13:38:51.102Z,99701.83
2019-05-01T13:41:22.762Z,99704.52
2019-05-01T13:43:53.419Z,99700.45
2019-05-01T13:46:25.455Z,99691.42
2019-05-01T13:48:55.926Z,99700.80
2019-05-01T13:51:27.445Z,99705.15
2019-05-01T13:53:58.993Z,99690.04
2019-05-01T13:56:29.553Z,99698.84
2019-05-01T13:59:00.070Z,99686.66
2019-05-01T14:01:30.597Z,99708.00
2019-05-01T14:04:01.096Z,99690.70
2019-05-01T14:06:31.700Z,99687.98
2019-05-01T14:09:02.267Z,99694.78
2019-05-01T14:11:34.239Z,99703.23
2019-05-01T14:14:04.757Z,99698.19
2019-05-01T14:16:36.261Z,99727.48
2019-05-01T14:19:07.788Z,99712.28
2019-05-01T14:21:42.923Z,99701.10
2019-05-01T14:24:27.075Z,99689.88
2019-05-01T14:26:57.571Z,99697.83
2019-05-01T14:29:28.083Z,99692.72
2019-05-01T14:31:58.582Z,99684.69
2019-05-01T14:34:33.710Z,99687.27
2019-05-01T14:37:08.867Z,99684.92
2019-05-01T14:39:40.414Z,99679.48
2019-05-01T14:42:10.949Z,99677.91
2019-05-01T14:44:42.512Z,99684.14
2019-05-01T14:47:13.339Z,99686.89
2019-05-01T14:49:44.326Z,99679.12
2019-05-01T14:52:16.289Z,99683.50
2019-05-01T14:54:46.809Z,99661.39
2019-05-01T14:57:17.392Z,99671.16
2019-05-01T14:59:47.959Z,99671.90
2019-05-01T15:02:18.467Z,99674.42
2019-05-01T15:04:49.001Z,99672.59
2019-05-01T15:07:20.371Z,99662.38
2019-05-01T15:09:50.800Z,99667.27
2019-05-01T15:12:22.010Z,99661.25
2019-05-01T15:14:57.267Z,99648.34
2019-05-01T15:17:35.210Z,99650.34
2019-05-01T15:20:06.717Z,99640.48
2019-05-01T15:22:37.228Z,99646.66
2019-05-01T15:25:07.733Z,99638.01
2019-05-01T15:27:38.314Z,99633.59
2019-05-01T15:30:10.214Z,99632.19
2019-05-01T15:32:40.763Z,99629.05
2019-05-01T15:35:12.390Z,99627.59
2019-05-01T15:37:55.781Z,99635.88
2019-05-01T15:40:16.690Z,99633.53
2019-05-01T15:42:54.877Z,99626.23
2019-05-01T15:45:26.805Z,99624.89
2019-05-01T15:47:57.361Z,99624.41
2019-05-01T15:50:27.899Z,99634.00
2019-05-01T15:52:58.394Z,99620.55
2019-05-01T15:55:28.858Z,99618.31
2019-05-01T15:57:59.346Z,99625.61
2019-05-01T16:00:29.911Z,99629.71
2019-05-01T16:03:00.465Z,99623.61
2019-05-01T16:05:30.941Z,99632.80
2019-05-01T16:08:09.500Z,99631.58
2019-05-01T16:10:38.027Z,99623.86
2019-05-01T16:13:08.602Z,99623.20
2019-05-01T16:15:39.208Z,99616.55
2019-05-01T16:18:09.733Z,99612.13
2019-05-01T16:20:40.282Z,99621.77
2019-05-01T16:23:10.855Z,99612.59
2019-05-01T16:25:42.472Z,99611.98
2019-05-01T16:28:13.037Z,99616.92
2019-05-01T16:30:43.545Z,99608.36
2019-05-01T16:33:14.102Z,99604.97
2019-05-01T16:35:44.574Z,99601.52
2019-05-01T16:38:23.246Z,99607.98
2019-05-01T16:40:56.612Z,99607.06
2019-05-01T16:43:27.111Z,99608.84
2019-05-01T16:45:59.651Z,99612.20
2019-05-01T16:48:30.887Z,99616.09
2019-05-01T16:51:01.368Z,99610.17
2019-05-01T16:53:33.950Z,99609.56
2019-05-01T16:56:04.432Z,99613.29
2019-05-01T16:58:37.280Z,99618.80
2019-05-01T17:01:09.444Z,99609.23
2019-05-01T17:03:58.189Z,99619.98
2019-05-01T17:06:49.516Z,99612.83
2019-05-01T17:09:42.159Z,99625.61
2019-05-01T17:12:13.835Z,99626.34
2019-05-01T17:14:44.592Z,99629.29
2019-05-01T17:17:16.665Z,99647.36
2019-05-01T17:19:47.266Z,99642.24
2019-05-01T17:22:17.753Z,99644.39
2019-05-01T17:24:49.237Z,99645.25
2019-05-01T17:27:19.705Z,99649.33
2019-05-01T17:29:51.256Z,99653.37
2019-05-01T17:32:21.863Z,99658.89
2019-05-01T17:35:01.892Z,99648.65
2019-05-01T17:37:31.345Z,99653.19
2019-05-01T17:40:01.922Z,99659.45
2019-05-01T17:42:32.980Z,99658.96
2019-05-01T17:45:05.621Z,99659.09
2019-05-01T17:47:36.135Z,99657.27
2019-05-01T17:50:06.697Z,99649.47
2019-05-01T17:52:38.232Z,99645.80
2019-05-01T17:55:09.775Z,99643.75
2019-05-01T17:57:40.478Z,99657.05
2019-05-01T18:00:30.828Z,99651.19
2019-05-01T18:03:06.847Z,99652.78
2019-05-01T18:05:39.368Z,99659.52
2019-05-01T18:08:10.854Z,99668.15
2019-05-01T18:10:41.454Z,99671.94
2019-05-01T18:13:13.041Z,99660.36
2019-05-01T18:15:43.611Z,99660.72
2019-05-01T18:18:16.528Z,99665.34
2019-05-01T18:20:48.288Z,99660.61
2019-05-01T18:23:37.606Z,99668.52
2019-05-01T18:26:10.073Z,99666.94
2019-05-01T18:29:00.733Z,99669.83
2019-05-01T18:31:31.864Z,99664.94
2019-05-01T18:34:04.484Z,99671.52
2019-05-01T18:36:37.866Z,99665.87
2019-05-01T18:39:17.126Z,99680.97
2019-05-01T18:42:02.158Z,99666.34
2019-05-01T18:44:33.949Z,99660.47
2019-05-01T18:47:04.739Z,99664.72
2019-05-01T18:49:36.244Z,99673.60
2019-05-01T18:52:07.532Z,99666.29
2019-05-01T18:54:38.020Z,99672.59
2019-05-01T18:57:08.716Z,99660.02
2019-05-01T18:59:39.217Z,99662.80
2019-05-01T19:02:11.762Z,99666.72
2019-05-01T19:04:42.254Z,99669.36
2019-05-01T19:07:13.777Z,99662.77
2019-05-01T19:09:44.305Z,99671.37
2019-05-01T19:12:16.153Z,99674.27
2019-05-01T19:14:46.875Z,99670.22
2019-05-01T19:17:17.341Z,99670.56
2019-05-01T19:19:48.818Z,99672.36
2019-05-01T19:22:20.299Z,99671.73
2019-05-01T19:24:50.972Z,99674.89
2019-05-01T19:27:24.279Z,99667.70
2019-05-01T19:29:53.768Z,99675.20
2019-05-01T19:32:25.166Z,99667.17
2019-05-01T19:34:55.646Z,99668.78
2019-05-01T19:37:30.595Z,99672.66
2019-05-01T19:39:59.330Z,99670.83
2019-05-01T19:42:29.797Z,99682.80
2019-05-01T19:45:00.089Z,99685.27
2019-05-01T19:47:30.843Z,99675.77
2019-05-01T19:50:07.167Z,99672.80
2019-05-01T19:52:37.988Z,99682.88
2019-05-01T19:55:10.203Z,99685.40
2019-05-01T19:57:40.603Z,99679.70
2019-05-01T20:00:12.355Z,99676.89
2019-05-01T20:02:43.027Z,99669.49
2019-05-01T20:05:14.475Z,99672.42
2019-05-01T20:07:46.148Z,99661.90
2019-05-01T20:10:18.066Z,99654.42
2019-05-01T20:12:49.565Z,99661.40
2019-05-01T20:15:24.893Z,99660.06
2019-05-01T20:17:52.184Z,99652.76
2019-05-01T20:20:22.679Z,99646.62
2019-05-01T20:22:56.918Z,99636.80
2019-05-01T20:25:27.434Z,99632.03
2019-05-01T20:27:58.071Z,99643.95
2019-05-01T20:30:28.595Z,99643.67
2019-05-01T20:33:02.238Z,99652.86
2019-05-01T20:35:34.148Z,99646.35
2019-05-01T20:38:03.682Z,99663.13
2019-05-01T20:40:34.169Z,99644.80
2019-05-01T20:43:07.120Z,99635.09
2019-05-01T20:45:37.902Z,99632.58
2019-05-01T20:48:09.359Z,99633.97
2019-05-01T20:50:40.924Z,99624.67
2019-05-01T20:53:11.396Z,99626.81
2019-05-01T20:55:45.556Z,99622.31
2019-05-01T20:58:17.612Z,99614.31
2019-05-01T21:00:53.480Z,99613.60
2019-05-01T21:03:21.811Z,99616.49
2019-05-01T21:05:56.867Z,99609.59
2019-05-01T21:08:39.255Z,99605.84
2019-05-01T21:11:10.969Z,99605.44
2019-05-01T21:13:43.916Z,99592.51
2019-05-01T21:16:14.420Z,99591.84
2019-05-01T21:18:45.030Z,99590.02
2019-05-01T21:21:15.589Z,99584.92
2019-05-01T21:23:48.167Z,99591.89
2019-05-01T21:26:18.202Z,99586.88
2019-05-01T21:28:48.641Z,99589.91
2019-05-01T21:31:19.131Z,99589.70
2019-05-01T21:33:50.700Z,99588.58
2019-05-01T21:36:22.186Z,99589.55
2019-05-01T21:38:52.781Z,99584.73
2019-05-01T21:41:23.305Z,99585.12
2019-05-01T21:43:54.711Z,99585.34
2019-05-01T21:46:28.170Z,99582.87
2019-05-01T21:48:59.694Z,99594.33
2019-05-01T21:51:30.336Z,99588.83
2019-05-01T21:54:03.278Z,99576.51
2019-05-01T21:56:36.863Z,99576.31
2019-05-01T21:59:08.360Z,99570.82
2019-05-01T22:01:38.318Z,99573.89
2019-05-01T22:04:08.809Z,99569.36
2019-05-01T22:06:39.270Z,99568.23
2019-05-01T22:09:15.230Z,99563.88
2019-05-01T22:11:47.321Z,99557.97
2019-05-01T22:14:36.069Z,99554.94
2019-05-01T22:17:06.399Z,99554.78
2019-05-01T22:19:36.877Z,99557.05
2019-05-01T22:22:11.667Z,99547.47
2019-05-01T22:24:46.693Z,99548.31
2019-05-01T22:27:21.473Z,99555.19
2019-05-01T22:29:57.173Z,99552.39
2019-05-01T22:32:34.331Z,99540.84
2019-05-01T22:35:19.969Z,99531.95
2019-05-01T22:37:50.473Z,99537.61
2019-05-01T22:40:26.290Z,99528.77
2019-05-01T22:42:57.826Z,99530.26
2019-05-01T22:45:28.320Z,99528.56
2019-05-01T22:47:59.883Z,99524.59
2019-05-01T22:50:30.355Z,99527.27
2019-05-01T22:53:00.865Z,99526.98
2019-05-01T22:55:32.377Z,99521.48
2019-05-01T22:58:03.891Z,99525.97
2019-05-01T23:00:35.939Z,99526.20
2019-05-01T23:03:08.028Z,99527.08
2019-05-01T23:05:41.506Z,99519.73
2019-05-01T23:08:12.094Z,99524.09
2019-05-01T23:10:47.043Z,99521.60
2019-05-01T23:13:14.613Z,99518.85
2019-05-01T23:15:46.180Z,99515.59
2019-05-01T23:18:17.762Z,99516.44
2019-05-01T23:20:48.223Z,99509.53
2019-05-01T23:23:18.727Z,99503.88
2019-05-01T23:25:49.175Z,99508.44
2019-05-01T23:28:19.670Z,99511.39
2019-05-01T23:30:52.558Z,99509.24
2019-05-01T23:33:23.094Z,99498.70
2019-05-01T23:35:53.519Z,99501.08
2019-05-01T23:38:24.050Z,99502.84
2019-05-01T23:40:54.644Z,99499.69
2019-05-01T23:43:27.852Z,99500.16
2019-05-01T23:45:58.266Z,99499.48
2019-05-01T23:48:28.762Z,99489.99
2019-05-01T23:50:59.205Z,99493.53
2019-05-01T23:53:29.585Z,99495.44
2019-05-01T23:56:02.007Z,99484.41
2019-05-01T23:58:33.316Z,99481.75
